createdAt,value
2023-04-07T00:00:12.718Z,18.30
2023-04-07T00:02:42.427Z,18.57
2023-04-07T00:05:12.441Z,19.17
2023-04-07T00:07:52.475Z,18.90
2023-04-07T00:10:26.237Z,18.90
2023-04-07T00:12:54.254Z,18.97
2023-04-07T00:15:22.249Z,19.23
2023-04-07T00:17:50.466Z,19.30
2023-04-07T00:20:18.551Z,18.80
2023-04-07T00:22:46.641Z,18.50
2023-04-07T00:25:14.628Z,19.07
2023-04-07T00:27:43.948Z,19.10
2023-04-07T00:30:12.295Z,20.07
2023-04-07T00:32:40.429Z,19.83
2023-04-07T00:35:09.233Z,18.53
2023-04-07T00:37:37.397Z,19.37
2023-04-07T00:40:06.122Z,18.77
2023-04-07T00:42:34.856Z,18.70
2023-04-07T00:45:04.291Z,18.50
2023-04-07T00:47:32.408Z,19.30
2023-04-07T00:50:00.497Z,19.40
2023-04-07T00:52:30.204Z,19.03
2023-04-07T00:54:58.636Z,20.20
2023-04-07T00:57:27.445Z,19.07
2023-04-07T00:59:57.417Z,19.90
2023-04-07T01:02:37.820Z,19.13
2023-04-07T01:05:13.920Z,19.77
2023-04-07T01:07:52.051Z,19.30
2023-04-07T01:10:28.754Z,19.60
2023-04-07T01:13:03.979Z,19.53
2023-04-07T01:15:32.842Z,19.40
2023-04-07T01:18:10.028Z,19.80
2023-04-07T01:20:39.095Z,19.30
2023-04-07T01:23:09.343Z,19.90
2023-04-07T01:26:03.927Z,19.13
2023-04-07T01:29:03.672Z,19.23
2023-04-07T01:31:35.119Z,18.90
2023-04-07T01:34:05.212Z,21.10
2023-04-07T01:36:34.809Z,20.03
2023-04-07T01:39:03.610Z,19.40
2023-04-07T01:41:32.387Z,19.27
2023-04-07T01:44:02.062Z,19.43
2023-04-07T01:46:30.431Z,19.20
2023-04-07T01:49:00.605Z,18.20
2023-04-07T01:51:31.636Z,19.30
2023-04-07T01:54:00.668Z,19.30
2023-04-07T01:56:28.748Z,19.67
2023-04-07T01:58:56.737Z,19.70
2023-04-07T02:01:24.800Z,19.30
2023-04-07T02:03:58.248Z,19.53
2023-04-07T02:06:34.218Z,19.37
2023-04-07T02:09:08.123Z,18.67
2023-04-07T02:11:38.624Z,18.20
2023-04-07T02:14:08.500Z,18.83
2023-04-07T02:16:37.676Z,18.20
2023-04-07T02:19:06.567Z,17.87
2023-04-07T02:21:37.158Z,20.00
2023-04-07T02:24:08.062Z,19.27
2023-04-07T02:26:36.742Z,18.97
2023-04-07T02:29:04.972Z,18.97
2023-04-07T02:31:33.031Z,19.37
2023-04-07T02:34:01.010Z,19.20
2023-04-07T02:36:29.066Z,19.30
2023-04-07T02:38:58.452Z,18.90
2023-04-07T02:41:26.414Z,19.07
2023-04-07T02:43:54.637Z,19.10
2023-04-07T02:46:22.877Z,19.33
2023-04-07T02:48:51.624Z,19.47
2023-04-07T02:51:19.620Z,19.70
2023-04-07T02:53:47.558Z,20.67
2023-04-07T02:56:17.240Z,19.63
2023-04-07T02:58:45.230Z,41.00
2023-04-07T03:01:13.264Z,39.33
2023-04-07T03:03:42.420Z,38.63
2023-04-07T03:06:10.540Z,39.93
2023-04-07T03:08:38.478Z,39.63
2023-04-07T03:11:06.461Z,18.80
2023-04-07T03:13:35.853Z,18.67
2023-04-07T03:16:03.801Z,19.20
2023-04-07T03:18:31.871Z,18.30
2023-04-07T03:20:59.852Z,17.57
2023-04-07T03:23:29.404Z,18.53
2023-04-07T03:25:58.307Z,18.10
2023-04-07T03:28:26.580Z,18.40
2023-04-07T03:30:55.924Z,18.17
2023-04-07T03:33:23.992Z,17.87
2023-04-07T03:35:51.956Z,17.93
2023-04-07T03:38:19.888Z,18.17
2023-04-07T03:40:47.902Z,17.57
2023-04-07T03:43:16.302Z,18.40
2023-04-07T03:45:44.483Z,17.97
2023-04-07T03:48:13.813Z,19.00
2023-04-07T03:50:42.148Z,19.77
2023-04-07T03:53:10.395Z,19.10
2023-04-07T03:55:38.929Z,20.23
2023-04-07T03:58:07.038Z,19.30
2023-04-07T04:00:35.473Z,17.70
2023-04-07T04:03:03.781Z,18.10
2023-04-07T04:05:41.917Z,40.00
2023-04-07T04:08:09.892Z,37.53
2023-04-07T04:10:37.858Z,41.03
2023-04-07T04:13:07.959Z,39.97
2023-04-07T04:15:35.999Z,38.97
2023-04-07T04:18:04.151Z,38.73
2023-04-07T04:20:33.489Z,39.50
2023-04-07T04:23:01.592Z,40.33
2023-04-07T04:25:29.806Z,18.10
2023-04-07T04:27:57.735Z,18.77
2023-04-07T04:30:25.788Z,18.37
2023-04-07T04:32:53.827Z,18.30
2023-04-07T04:35:21.933Z,39.93
2023-04-07T04:37:51.466Z,40.53
2023-04-07T04:40:19.645Z,39.00
2023-04-07T04:42:47.700Z,40.67
2023-04-07T04:45:15.645Z,40.53
2023-04-07T04:47:44.280Z,40.57
2023-04-07T04:50:12.972Z,42.80
2023-04-07T04:52:40.943Z,37.50
2023-04-07T04:55:12.277Z,34.40
2023-04-07T04:57:41.985Z,33.97
2023-04-07T05:00:11.050Z,39.33
2023-04-07T05:02:39.370Z,40.00
2023-04-07T05:05:08.604Z,40.13
2023-04-07T05:07:40.332Z,39.40
2023-04-07T05:10:10.679Z,39.60
2023-04-07T05:12:38.773Z,41.20
2023-04-07T05:15:08.059Z,22.23
2023-04-07T05:17:36.269Z,17.40
2023-04-07T05:20:05.376Z,17.30
2023-04-07T05:22:33.299Z,20.57
2023-04-07T05:25:01.229Z,21.40
2023-04-07T05:27:30.563Z,19.70
2023-04-07T05:29:59.082Z,20.77
2023-04-07T05:32:29.342Z,20.03
2023-04-07T05:34:57.564Z,19.07
2023-04-07T05:37:25.604Z,19.60
2023-04-07T05:39:53.716Z,19.17
2023-04-07T05:42:21.857Z,18.40
2023-04-07T05:44:51.696Z,21.80
2023-04-07T05:47:19.675Z,21.17
2023-04-07T05:49:47.836Z,20.93
2023-04-07T05:52:16.345Z,22.07
2023-04-07T05:54:44.392Z,22.67
2023-04-07T05:57:12.382Z,21.60
2023-04-07T05:59:40.538Z,20.93
2023-04-07T06:02:10.033Z,20.23
2023-04-07T06:04:39.520Z,20.47
2023-04-07T06:07:07.750Z,21.57
2023-04-07T06:09:35.846Z,23.00
2023-04-07T06:12:05.137Z,42.87
2023-04-07T06:14:33.179Z,44.07
2023-04-07T06:17:01.383Z,49.67
2023-04-07T06:19:30.956Z,45.83
2023-04-07T06:21:58.971Z,47.13
2023-04-07T06:24:27.198Z,47.77
2023-04-07T06:26:56.316Z,49.77
2023-04-07T06:29:24.285Z,51.03
2023-04-07T06:31:52.254Z,47.53
2023-04-07T06:34:20.323Z,49.00
2023-04-07T06:36:49.706Z,44.33
2023-04-07T06:39:17.742Z,28.53
2023-04-07T06:41:47.002Z,23.40
2023-04-07T06:44:14.955Z,22.80
2023-04-07T06:46:44.401Z,20.80
2023-04-07T06:49:12.539Z,20.80
2023-04-07T06:51:40.510Z,22.17
2023-04-07T06:54:13.020Z,23.40
2023-04-07T06:56:41.367Z,21.40
2023-04-07T06:59:09.547Z,21.50
2023-04-07T07:01:38.450Z,21.13
2023-04-07T07:04:07.142Z,21.17
2023-04-07T07:06:35.334Z,20.63
2023-04-07T07:09:04.101Z,20.80
2023-04-07T07:11:33.427Z,20.43
2023-04-07T07:14:01.460Z,19.87
2023-04-07T07:16:29.442Z,20.90
2023-04-07T07:18:57.400Z,20.10
2023-04-07T07:21:26.726Z,19.30
2023-04-07T07:23:54.721Z,19.80
2023-04-07T07:26:22.765Z,19.70
2023-04-07T07:28:52.089Z,19.90
2023-04-07T07:31:20.430Z,19.07
2023-04-07T07:33:50.022Z,19.37
2023-04-07T07:36:18.340Z,21.80
2023-04-07T07:38:46.370Z,22.70
2023-04-07T07:41:14.583Z,21.00
2023-04-07T07:43:42.997Z,22.20
2023-04-07T07:46:12.457Z,21.20
2023-04-07T07:48:40.446Z,22.03
2023-04-07T07:51:08.391Z,20.43
2023-04-07T07:53:36.375Z,21.43
2023-04-07T07:56:04.379Z,20.30
2023-04-07T07:58:32.522Z,42.87
2023-04-07T08:01:00.645Z,41.40
2023-04-07T08:03:30.145Z,41.10
2023-04-07T08:06:01.189Z,48.20
2023-04-07T08:08:29.129Z,44.23
2023-04-07T08:10:57.064Z,42.13
2023-04-07T08:13:25.090Z,54.00
2023-04-07T08:15:53.081Z,42.37
2023-04-07T08:18:21.076Z,28.90
2023-04-07T08:20:51.574Z,25.83
2023-04-07T08:23:19.622Z,33.30
2023-04-07T08:25:47.543Z,35.47
2023-04-07T08:28:16.014Z,29.57
2023-04-07T08:30:43.975Z,26.87
2023-04-07T08:33:12.103Z,20.50
2023-04-07T08:35:40.026Z,20.10
2023-04-07T08:38:09.817Z,33.03
2023-04-07T08:40:38.037Z,20.97
2023-04-07T08:43:10.028Z,21.87
2023-04-07T08:45:42.182Z,24.27
2023-04-07T08:48:17.665Z,21.10
2023-04-07T08:50:47.146Z,20.90
2023-04-07T08:53:24.523Z,20.10
2023-04-07T08:55:52.953Z,18.30
2023-04-07T08:58:21.313Z,19.30
2023-04-07T09:00:50.423Z,40.43
2023-04-07T09:03:19.116Z,41.77
2023-04-07T09:05:47.417Z,43.63
2023-04-07T09:08:16.744Z,38.40
2023-04-07T09:10:44.744Z,44.77
2023-04-07T09:13:12.701Z,42.87
2023-04-07T09:15:41.503Z,39.00
2023-04-07T09:18:09.665Z,40.23
2023-04-07T09:20:57.770Z,40.87
2023-04-07T09:23:31.579Z,35.27
2023-04-07T09:26:01.553Z,36.07
2023-04-07T09:28:43.504Z,37.00
2023-04-07T09:31:11.545Z,35.87
2023-04-07T09:33:39.773Z,38.40
2023-04-07T09:36:08.247Z,41.63
2023-04-07T09:38:40.074Z,45.03
2023-04-07T09:41:09.332Z,48.90
2023-04-07T09:43:39.122Z,41.30
2023-04-07T09:46:15.274Z,52.10
2023-04-07T09:48:44.841Z,51.50
2023-04-07T09:51:14.574Z,42.03
2023-04-07T09:53:45.366Z,40.90
2023-04-07T09:56:14.257Z,58.90
2023-04-07T09:58:42.313Z,22.67
2023-04-07T10:01:11.560Z,20.40
2023-04-07T10:03:40.592Z,18.45
2023-04-07T10:06:08.837Z,20.20
2023-04-07T10:08:38.706Z,19.17
2023-04-07T10:11:08.203Z,19.27
2023-04-07T10:13:38.470Z,19.87
2023-04-07T10:16:08.635Z,18.65
2023-04-07T10:18:38.122Z,18.20
2023-04-07T10:21:09.415Z,18.93
2023-04-07T10:23:50.161Z,18.52
2023-04-07T10:26:25.001Z,23.70
2023-04-07T10:28:58.337Z,17.90
2023-04-07T10:31:26.655Z,17.25
2023-04-07T10:33:56.572Z,17.70
2023-04-07T10:36:24.893Z,17.70
2023-04-07T10:39:23.630Z,17.70
2023-04-07T10:41:53.414Z,18.45
2023-04-07T10:44:46.914Z,18.20
2023-04-07T10:47:15.125Z,18.00
2023-04-07T10:50:19.601Z,19.15
2023-04-07T10:52:48.702Z,17.95
2023-04-07T10:55:37.687Z,18.45
2023-04-07T10:58:21.205Z,17.70
2023-04-07T11:01:22.769Z,18.52
2023-04-07T11:04:04.914Z,18.70
2023-04-07T11:06:32.994Z,18.50
2023-04-07T11:09:00.966Z,18.27
2023-04-07T11:11:42.538Z,18.70
2023-04-07T11:14:11.918Z,18.60
2023-04-07T11:16:45.703Z,17.90
2023-04-07T11:19:13.744Z,18.08
2023-04-07T11:21:41.787Z,17.70
2023-04-07T11:24:09.742Z,18.00
2023-04-07T11:26:43.903Z,18.15
2023-04-07T11:29:13.515Z,18.23
2023-04-07T11:31:41.686Z,18.15
2023-04-07T11:34:09.713Z,17.38
2023-04-07T11:36:41.031Z,18.30
2023-04-07T11:39:21.010Z,18.02
2023-04-07T11:41:50.664Z,18.52
2023-04-07T11:44:20.537Z,18.42
2023-04-07T11:46:55.680Z,18.85
2023-04-07T11:49:25.054Z,18.42
2023-04-07T11:52:00.111Z,18.65
2023-04-07T11:54:28.425Z,19.00
2023-04-07T11:56:56.526Z,19.02
2023-04-07T11:59:27.052Z,19.40
2023-04-07T12:01:57.702Z,17.85
2023-04-07T12:04:26.216Z,18.30
2023-04-07T12:06:54.412Z,19.50
2023-04-07T12:09:30.955Z,20.85
2023-04-07T12:11:59.543Z,30.48
2023-04-07T12:14:29.204Z,15.20
2023-04-07T12:16:58.306Z,20.30
2023-04-07T12:19:28.126Z,19.60
2023-04-07T12:21:56.557Z,18.00
2023-04-07T12:24:24.875Z,25.23
2023-04-07T12:26:53.045Z,29.42
2023-04-07T12:29:21.158Z,20.88
2023-04-07T12:31:51.360Z,19.95
2023-04-07T12:34:19.766Z,19.95
2023-04-07T12:36:48.298Z,18.25
2023-04-07T12:39:16.856Z,31.35
2023-04-07T12:41:45.887Z,33.95
2023-04-07T12:44:14.193Z,45.50
2023-04-07T12:46:43.240Z,38.20
2023-04-07T12:49:12.789Z,37.03
2023-04-07T12:51:41.350Z,35.60
2023-04-07T12:54:09.839Z,38.50
2023-04-07T12:56:37.825Z,23.17
2023-04-07T12:59:05.769Z,39.92
2023-04-07T13:01:35.551Z,32.55
2023-04-07T13:04:03.704Z,35.15
2023-04-07T13:06:33.695Z,47.50
2023-04-07T13:09:01.657Z,25.90
2023-04-07T13:11:29.702Z,23.23
2023-04-07T13:13:59.829Z,19.90
2023-04-07T13:16:29.304Z,19.23
2023-04-07T13:18:57.283Z,19.50
2023-04-07T13:23:57.731Z,19.07
2023-04-07T13:26:26.207Z,19.30
2023-04-07T13:28:54.190Z,19.40
2023-04-07T13:31:23.896Z,17.53
2023-04-07T13:33:51.972Z,18.13
2023-04-07T13:36:22.547Z,19.38
2023-04-07T13:38:51.247Z,20.10
2023-04-07T13:41:21.590Z,19.20
2023-04-07T13:43:49.694Z,19.58
2023-04-07T13:46:28.131Z,35.55
2023-04-07T13:48:56.807Z,21.73
2023-04-07T13:51:24.932Z,20.42
2023-04-07T13:53:52.962Z,22.55
2023-04-07T13:56:22.550Z,18.65
2023-04-07T13:58:50.607Z,18.90
2023-04-07T14:01:18.917Z,18.25
2023-04-07T14:03:48.015Z,19.13
2023-04-07T14:06:16.736Z,18.25
2023-04-07T14:08:44.672Z,20.25
2023-04-07T14:11:12.602Z,15.52
2023-04-07T14:13:41.982Z,18.80
2023-04-07T14:16:10.043Z,20.33
2023-04-07T14:18:38.482Z,20.05
2023-04-07T14:21:06.652Z,18.45
2023-04-07T14:23:37.700Z,18.60
2023-04-07T14:26:20.192Z,19.17
2023-04-07T14:28:49.587Z,23.75
2023-04-07T14:31:18.375Z,30.45
2023-04-07T14:33:46.947Z,15.70
2023-04-07T14:36:16.705Z,15.23
2023-04-07T14:38:45.050Z,17.83
2023-04-07T14:41:13.329Z,18.77
2023-04-07T14:43:41.440Z,31.50
2023-04-07T14:46:12.275Z,17.88
2023-04-07T14:48:40.313Z,19.77
2023-04-07T14:51:13.609Z,17.65
2023-04-07T14:53:43.579Z,17.50
2023-04-07T14:56:11.583Z,18.13
2023-04-07T14:58:40.742Z,18.00
2023-04-07T15:01:10.372Z,18.00
2023-04-07T15:03:39.039Z,17.90
2023-04-07T15:06:10.450Z,17.63
2023-04-07T15:08:38.490Z,19.00
2023-04-07T15:11:06.779Z,20.10
2023-04-07T15:13:35.272Z,20.45
2023-04-07T15:16:13.273Z,19.17
2023-04-07T15:18:42.894Z,16.88
2023-04-07T15:21:11.917Z,15.82
2023-04-07T15:23:41.698Z,18.60
2023-04-07T15:26:10.412Z,16.77
2023-04-07T15:28:38.742Z,15.82
2023-04-07T15:31:08.703Z,17.23
2023-04-07T15:33:39.030Z,18.50
2023-04-07T15:36:07.964Z,17.33
2023-04-07T15:38:36.246Z,16.17
2023-04-07T15:41:04.261Z,18.05
2023-04-07T15:43:32.236Z,18.60
2023-04-07T15:46:00.500Z,18.52
2023-04-07T15:48:28.625Z,18.38
2023-04-07T15:50:57.951Z,18.35
2023-04-07T15:53:26.210Z,18.67
2023-04-07T15:55:54.226Z,18.60
2023-04-07T15:58:22.182Z,18.50
2023-04-07T16:00:50.545Z,18.30
2023-04-07T16:03:18.811Z,17.85
2023-04-07T16:05:46.877Z,17.55
2023-04-07T16:08:16.223Z,17.90
2023-04-07T16:10:44.605Z,17.60
2023-04-07T16:13:12.691Z,16.50
2023-04-07T16:15:41.782Z,17.08
2023-04-07T16:18:12.056Z,16.70
2023-04-07T16:20:40.448Z,16.30
2023-04-07T16:23:08.392Z,16.70
2023-04-07T16:25:37.695Z,16.75
2023-04-07T16:28:05.666Z,16.75
2023-04-07T16:30:33.675Z,16.38
2023-04-07T16:33:01.760Z,17.30
2023-04-07T16:35:30.918Z,17.90
2023-04-07T16:38:03.659Z,17.48
2023-04-07T16:40:31.699Z,17.98
2023-04-07T16:43:01.122Z,17.85
2023-04-07T16:45:29.209Z,18.13
2023-04-07T16:47:57.195Z,17.52
2023-04-07T16:50:25.243Z,17.97
2023-04-07T16:52:54.802Z,19.10
2023-04-07T16:55:22.988Z,18.30
2023-04-07T16:57:51.163Z,17.50
2023-04-07T17:00:21.213Z,17.77
2023-04-07T17:02:49.389Z,18.13
2023-04-07T17:05:18.318Z,17.90
2023-04-07T17:07:46.336Z,17.97
2023-04-07T17:10:15.062Z,19.63
2023-04-07T17:12:43.084Z,18.43
2023-04-07T17:15:11.846Z,18.27
2023-04-07T17:17:41.217Z,19.07
2023-04-07T17:20:10.872Z,19.83
2023-04-07T17:22:38.972Z,19.63
2023-04-07T17:25:07.733Z,20.80
2023-04-07T17:27:35.993Z,19.30
2023-04-07T17:30:07.059Z,21.50
2023-04-07T17:32:35.117Z,20.97
2023-04-07T17:35:04.594Z,22.63
2023-04-07T17:37:32.779Z,22.40
2023-04-07T17:40:01.764Z,20.90
2023-04-07T17:42:29.772Z,21.17
2023-04-07T17:44:57.774Z,22.63
2023-04-07T17:47:25.857Z,21.43
2023-04-07T17:49:53.834Z,20.37
2023-04-07T17:52:23.219Z,20.53
2023-04-07T17:54:51.220Z,20.63
2023-04-07T17:57:20.168Z,21.23
2023-04-07T17:59:48.549Z,21.13
2023-04-07T18:02:16.662Z,20.93
2023-04-07T18:04:45.599Z,20.50
2023-04-07T18:07:14.968Z,19.53
2023-04-07T18:09:45.005Z,20.13
2023-04-07T18:12:13.444Z,20.40
2023-04-07T18:14:41.489Z,19.70
2023-04-07T18:17:09.425Z,21.67
2023-04-07T18:19:39.477Z,21.47
2023-04-07T18:22:09.763Z,21.30
2023-04-07T18:24:38.275Z,20.47
2023-04-07T18:27:07.566Z,22.13
2023-04-07T18:29:35.539Z,19.97
2023-04-07T18:32:03.598Z,19.77
2023-04-07T18:34:31.548Z,19.73
2023-04-07T18:36:59.492Z,20.37
2023-04-07T18:39:28.060Z,22.83
2023-04-07T18:41:57.479Z,21.83
2023-04-07T18:44:28.526Z,22.13
2023-04-07T18:46:59.143Z,22.20
2023-04-07T18:49:28.485Z,21.97
2023-04-07T18:51:56.716Z,21.87
2023-04-07T18:54:27.081Z,20.63
2023-04-07T18:56:55.108Z,21.93
2023-04-07T18:59:23.124Z,19.60
2023-04-07T19:01:52.547Z,19.87
2023-04-07T19:04:21.450Z,18.80
2023-04-07T19:06:52.099Z,21.07
2023-04-07T19:09:20.059Z,20.57
2023-04-07T19:11:48.198Z,20.17
2023-04-07T19:14:16.159Z,19.93
2023-04-07T19:16:44.740Z,19.40
2023-04-07T19:19:14.695Z,20.97
2023-04-07T19:21:42.666Z,21.57
2023-04-07T19:24:10.808Z,19.70
2023-04-07T19:26:39.039Z,20.30
2023-04-07T19:29:07.062Z,20.07
2023-04-07T19:31:35.370Z,19.90
2023-04-07T19:34:03.425Z,21.03
2023-04-07T19:36:32.865Z,21.57
2023-04-07T19:39:01.011Z,20.63
2023-04-07T19:41:29.345Z,21.23
2023-04-07T19:43:57.448Z,19.20
2023-04-07T19:46:25.506Z,19.00
2023-04-07T19:48:53.769Z,21.23
2023-04-07T19:51:22.016Z,19.50
2023-04-07T19:53:51.823Z,19.43
2023-04-07T19:56:19.834Z,22.88
2023-04-07T19:58:49.068Z,18.37
2023-04-07T20:01:17.980Z,20.30
2023-04-07T20:03:47.187Z,40.43
2023-04-07T20:06:15.500Z,43.77
2023-04-07T20:08:43.736Z,41.85
2023-04-07T20:11:13.584Z,40.23
2023-04-07T20:13:43.493Z,42.70
2023-04-07T20:16:11.882Z,43.35
2023-04-07T20:18:39.815Z,42.63
2023-04-07T20:21:07.821Z,44.97
2023-04-07T20:23:35.823Z,40.13
2023-04-07T20:26:04.276Z,20.70
2023-04-07T20:28:33.597Z,21.53
2023-04-07T20:31:01.733Z,21.67
2023-04-07T20:33:29.721Z,20.23
2023-04-07T20:35:57.728Z,19.90
2023-04-07T20:38:26.102Z,21.53
2023-04-07T20:40:54.172Z,20.47
2023-04-07T20:43:23.765Z,21.00
2023-04-07T20:45:53.360Z,21.73
2023-04-07T20:48:23.915Z,20.73
2023-04-07T20:50:52.854Z,21.43
2023-04-07T20:53:21.454Z,22.43
2023-04-07T20:55:49.462Z,21.50
2023-04-07T20:58:18.477Z,22.60
2023-04-07T21:00:46.605Z,22.90
2023-04-07T21:03:16.435Z,23.87
2023-04-07T21:05:45.821Z,21.30
2023-04-07T21:08:15.856Z,21.10
2023-04-07T21:10:43.884Z,21.37
2023-04-07T21:13:11.812Z,21.37
2023-04-07T21:15:42.217Z,22.17
2023-04-07T21:18:10.393Z,22.67
2023-04-07T21:20:39.776Z,20.93
2023-04-07T21:23:08.723Z,21.33
2023-04-07T21:25:38.960Z,21.43
2023-04-07T21:28:07.346Z,22.23
2023-04-07T21:30:35.615Z,20.90
2023-04-07T21:33:04.200Z,21.83
2023-04-07T21:35:32.232Z,20.20
2023-04-07T21:38:01.581Z,20.00
2023-04-07T21:40:29.526Z,21.23
2023-04-07T21:42:57.653Z,20.27
2023-04-07T21:45:25.720Z,19.70
2023-04-07T21:47:53.680Z,19.77
2023-04-07T21:50:21.803Z,20.33
2023-04-07T21:52:51.643Z,19.53
2023-04-07T21:55:21.364Z,19.90
2023-04-07T21:57:50.248Z,19.60
2023-04-07T22:00:18.441Z,19.40
2023-04-07T22:02:46.810Z,20.13
2023-04-07T22:05:15.952Z,20.47
2023-04-07T22:07:45.618Z,19.23
2023-04-07T22:10:14.077Z,18.77
2023-04-07T22:12:43.484Z,19.20
2023-04-07T22:15:12.893Z,19.50
2023-04-07T22:17:41.395Z,18.80
2023-04-07T22:20:11.663Z,19.87
2023-04-07T22:22:39.838Z,21.00
2023-04-07T22:25:08.425Z,21.70
2023-04-07T22:27:36.393Z,22.30
2023-04-07T22:30:09.853Z,20.73
2023-04-07T22:32:38.238Z,20.50
2023-04-07T22:35:06.908Z,20.67
2023-04-07T22:37:34.899Z,20.10
2023-04-07T22:40:02.955Z,19.23
2023-04-07T22:42:31.142Z,19.43
2023-04-07T22:44:59.082Z,20.63
2023-04-07T22:47:28.397Z,20.10
2023-04-07T22:49:56.498Z,19.70
2023-04-07T22:52:24.444Z,20.20
2023-04-07T22:54:52.435Z,20.50
2023-04-07T22:57:20.545Z,19.10
2023-04-07T22:59:48.514Z,20.63
2023-04-07T23:02:16.546Z,20.30
2023-04-07T23:04:45.927Z,20.30
2023-04-07T23:07:14.016Z,20.13
2023-04-07T23:09:41.969Z,20.43
2023-04-07T23:12:10.560Z,19.97
2023-04-07T23:14:38.514Z,18.57
2023-04-07T23:17:06.534Z,19.77
2023-04-07T23:19:34.501Z,19.77
2023-04-07T23:22:03.799Z,20.87
2023-04-07T23:24:31.852Z,19.43
2023-04-07T23:26:59.854Z,20.73
2023-04-07T23:29:28.234Z,20.17
2023-04-07T23:31:56.734Z,19.17
2023-04-07T23:34:24.813Z,20.40
2023-04-07T23:36:53.025Z,20.80
2023-04-07T23:39:22.346Z,19.27
2023-04-07T23:41:50.314Z,19.00
2023-04-07T23:44:18.965Z,19.83
2023-04-07T23:46:46.931Z,19.17
2023-04-07T23:49:14.899Z,21.13
2023-04-07T23:51:43.795Z,19.57
2023-04-07T23:54:12.389Z,20.30
2023-04-07T23:56:41.672Z,20.20
2023-04-07T23:59:09.630Z,19.10
